Portada
METAR-TAF:

METAR-TAF

Aeroports :

Txeboksari, Rússia

latitud: 56-05-24N, longitud: 047-20-50E, altitud: 171 m

Observació

L'informe es va fer fa 11 minuts, a les 01:00 UTC
Vent 17 kt del Sud-Oest
Temperatura -4°C
Humitat 86%
Pressió 1003 hPa
Visibilitat: 0800 m
neu, torb alta de neu

METAR: UWKS 020100Z 23009MPS 0800 R24/2000N +SN BLSN VV002 M04/M06 Q1003 R24/820538 TEMPO 0600 +SN BLSN VV001 RMK QBB060 QFE738

Hora: 04:11 (01:11 UTC)

Pronòstic

L'informe es va fer fa 2 hores i 13 minuts, a les 22:58 UTC
Pronòstic vàlid del 02 a les 00 UTC al 02 a les 09 UTC
Vent 14 kt del Oest/Sud-Oest amb ràfegues de 27 kt
Visibilitat: 3900 m
Cel ennuvolat a una alçada de 1000 ft
neu
Temporalment
l' 02 a les 00 UTC al 02 a les 06 UTC
Visibilitat: 1100 m
Cel cobert a una alçada de 500 ft
neu, torb alta de neu

TAF: UWKS 012258Z 0200/0209 24007G14MPS 3900 -SN BKN010 TX03/0209Z TNM01/0200Z TEMPO 0200/0206 1100 SN BLSN OVC005

Observacions i pronòstics meteorològics de més de 4000 aeroports (METAR i TAF).

Les estacions disponibles són els punts grocs i vermells al mapa.

Posi el ratolí al punt desitjat per veure el nom de l'estació.

Feu clic per veure les observacions i els pronòstics meteorològics.

Per canviar el mapa: feu clic els botons verds amb una creu de color negre per apropar; al botó verd amb un guió per allunyar la imatge; o en les fletxes verdes per a mapes adjacents.


METAR-TAF: